createdAt,value
2023-05-09T00:01:46.476Z,4.40
2023-05-09T00:04:13.219Z,4.50
2023-05-09T00:06:39.815Z,4.95
2023-05-09T00:09:06.372Z,4.70
2023-05-09T00:11:32.974Z,4.32
2023-05-09T00:13:59.535Z,4.95
2023-05-09T00:16:26.135Z,5.05
2023-05-09T00:18:52.863Z,4.03
2023-05-09T00:21:19.440Z,6.80
2023-05-09T00:23:49.354Z,5.43
2023-05-09T00:26:16.373Z,5.03
2023-05-09T00:28:43.007Z,4.20
2023-05-09T00:31:09.590Z,5.10
2023-05-09T00:33:36.266Z,4.45
2023-05-09T00:36:02.844Z,4.20
2023-05-09T00:38:29.398Z,5.00
2023-05-09T00:40:55.964Z,5.05
2023-05-09T00:43:22.559Z,4.93
2023-05-09T00:45:49.491Z,4.95
2023-05-09T00:48:16.659Z,5.63
2023-05-09T00:50:43.808Z,4.22
2023-05-09T00:53:10.735Z,5.30
2023-05-09T00:55:37.314Z,4.50
2023-05-09T00:58:03.876Z,4.28
2023-05-09T01:00:30.441Z,5.18
2023-05-09T01:02:57.261Z,5.25
2023-05-09T01:05:29.447Z,4.47
2023-05-09T01:08:27.051Z,6.47
2023-05-09T01:11:08.807Z,4.70
2023-05-09T01:14:08.769Z,4.05
2023-05-09T01:16:39.692Z,6.30
2023-05-09T01:19:45.934Z,4.65
2023-05-09T01:22:14.201Z,4.95
2023-05-09T01:25:07.560Z,4.15
2023-05-09T01:27:37.005Z,5.07
2023-05-09T01:30:04.816Z,4.50
2023-05-09T01:32:33.970Z,5.05
2023-05-09T01:35:03.061Z,5.03
2023-05-09T01:37:34.295Z,3.88
2023-05-09T01:40:08.572Z,5.20
2023-05-09T01:42:57.930Z,5.95
2023-05-09T01:45:25.083Z,4.28
2023-05-09T01:47:51.978Z,5.03
2023-05-09T01:50:18.958Z,4.85
2023-05-09T01:52:50.538Z,4.10
2023-05-09T01:55:19.197Z,4.43
2023-05-09T01:57:45.892Z,6.75
2023-05-09T02:00:14.281Z,4.75
2023-05-09T02:02:41.762Z,4.93
2023-05-09T02:05:09.905Z,5.70
2023-05-09T02:07:38.058Z,4.35
2023-05-09T02:10:05.925Z,4.50
2023-05-09T02:12:32.490Z,5.53
2023-05-09T02:14:59.384Z,3.88
2023-05-09T02:17:26.223Z,4.28
2023-05-09T02:19:52.827Z,4.65
2023-05-09T02:22:25.513Z,8.23
2023-05-09T02:24:52.190Z,4.30
2023-05-09T02:27:19.709Z,4.35
2023-05-09T02:29:49.201Z,4.97
2023-05-09T02:32:17.413Z,4.45
2023-05-09T02:34:45.467Z,4.05
2023-05-09T02:37:13.459Z,4.43
2023-05-09T02:39:40.068Z,4.65
2023-05-09T02:42:09.710Z,4.10
2023-05-09T02:44:36.753Z,4.50
2023-05-09T02:47:03.809Z,5.25
2023-05-09T02:49:32.696Z,4.32
2023-05-09T02:51:59.934Z,5.20
2023-05-09T02:54:26.545Z,4.15
2023-05-09T02:56:53.138Z,4.28
2023-05-09T02:59:20.304Z,4.28
2023-05-09T03:01:46.999Z,4.60
2023-05-09T03:04:13.601Z,4.63
2023-05-09T03:06:40.369Z,4.93
2023-05-09T03:09:07.204Z,4.93
2023-05-09T03:11:36.897Z,4.05
2023-05-09T03:14:04.204Z,4.53
2023-05-09T03:16:31.361Z,4.55
2023-05-09T03:18:57.973Z,4.63
2023-05-09T03:21:24.529Z,4.25
2023-05-09T03:23:51.253Z,4.18
2023-05-09T03:26:22.456Z,4.88
2023-05-09T03:28:49.059Z,3.97
2023-05-09T03:31:16.359Z,4.60
2023-05-09T03:33:42.964Z,4.60
2023-05-09T03:36:09.727Z,4.47
2023-05-09T03:38:36.315Z,3.80
2023-05-09T03:41:02.899Z,4.20
2023-05-09T03:43:29.473Z,4.75
2023-05-09T03:45:56.078Z,3.80
2023-05-09T03:48:22.625Z,4.20
2023-05-09T03:50:49.179Z,3.72
2023-05-09T03:53:15.977Z,4.97
2023-05-09T03:55:42.538Z,4.25
2023-05-09T03:58:09.155Z,5.00
2023-05-09T04:00:35.724Z,4.65
2023-05-09T04:03:02.402Z,4.50
2023-05-09T04:05:29.055Z,4.70
2023-05-09T04:07:55.628Z,5.28
2023-05-09T04:10:22.544Z,4.47
2023-05-09T04:12:49.122Z,4.65
2023-05-09T04:15:16.037Z,3.83
2023-05-09T04:17:44.437Z,4.30
2023-05-09T04:20:11.735Z,5.90
2023-05-09T04:22:39.148Z,3.95
2023-05-09T04:25:06.563Z,4.75
2023-05-09T04:27:33.116Z,4.43
2023-05-09T04:30:00.225Z,4.95
2023-05-09T04:32:27.057Z,5.43
2023-05-09T04:34:53.650Z,4.60
2023-05-09T04:37:20.278Z,6.00
2023-05-09T04:39:50.650Z,5.22
2023-05-09T04:42:17.251Z,6.93
2023-05-09T04:44:43.831Z,5.32
2023-05-09T04:47:10.416Z,7.28
2023-05-09T04:49:36.960Z,3.95
2023-05-09T04:52:03.599Z,6.78
2023-05-09T04:54:30.168Z,5.28
2023-05-09T04:57:06.361Z,5.05
2023-05-09T04:59:40.717Z,7.88
2023-05-09T05:02:07.274Z,4.95
2023-05-09T05:04:38.412Z,5.05
2023-05-09T05:07:05.361Z,4.95
2023-05-09T05:09:31.901Z,4.70
2023-05-09T05:12:02.354Z,4.03
2023-05-09T05:14:29.740Z,5.35
2023-05-09T05:16:56.331Z,4.75
2023-05-09T05:19:22.879Z,4.75
2023-05-09T05:21:50.263Z,4.78
2023-05-09T05:24:16.813Z,5.32
2023-05-09T05:26:45.733Z,5.53
2023-05-09T05:29:12.285Z,5.45
2023-05-09T05:31:38.907Z,3.58
2023-05-09T05:34:05.601Z,4.20
2023-05-09T05:36:32.248Z,5.88
2023-05-09T05:38:58.842Z,4.90
2023-05-09T05:41:26.230Z,4.88
2023-05-09T05:43:54.349Z,7.25
2023-05-09T05:46:21.312Z,4.80
2023-05-09T05:48:48.036Z,4.60
2023-05-09T05:51:14.615Z,4.82
2023-05-09T05:53:41.263Z,5.53
2023-05-09T05:56:07.898Z,4.97
2023-05-09T05:58:37.488Z,7.40
2023-05-09T06:01:04.208Z,6.22
2023-05-09T06:03:30.922Z,4.53
2023-05-09T06:05:57.858Z,4.82
2023-05-09T06:08:24.425Z,6.70
2023-05-09T06:10:51.790Z,5.38
2023-05-09T06:13:18.405Z,5.00
2023-05-09T06:15:45.007Z,5.32
2023-05-09T06:18:11.635Z,5.40
2023-05-09T06:20:38.247Z,6.43
2023-05-09T06:23:04.809Z,5.30
2023-05-09T06:25:32.135Z,4.10
2023-05-09T06:27:58.664Z,4.25
2023-05-09T06:30:28.329Z,3.47
2023-05-09T06:32:55.557Z,3.95
2023-05-09T06:35:22.342Z,3.90
2023-05-09T06:37:49.295Z,4.07
2023-05-09T06:40:16.501Z,4.80
2023-05-09T06:42:43.081Z,4.00
2023-05-09T06:45:10.067Z,4.97
2023-05-09T06:47:36.785Z,5.18
2023-05-09T06:50:03.807Z,3.92
2023-05-09T06:52:30.456Z,5.95
2023-05-09T06:54:57.032Z,5.13
2023-05-09T06:57:23.763Z,4.53
2023-05-09T06:59:50.697Z,4.13
2023-05-09T07:02:17.300Z,6.70
2023-05-09T07:04:43.884Z,4.57
2023-05-09T07:07:10.465Z,6.57
2023-05-09T07:09:37.047Z,4.88
2023-05-09T07:12:03.774Z,3.63
2023-05-09T07:14:30.327Z,4.38
2023-05-09T07:17:09.925Z,5.50
2023-05-09T07:19:43.412Z,6.05
2023-05-09T07:22:10.011Z,6.18
2023-05-09T07:24:38.265Z,6.15
2023-05-09T07:27:04.865Z,5.63
2023-05-09T07:29:31.425Z,5.38
2023-05-09T07:31:58.003Z,5.85
2023-05-09T07:34:25.477Z,8.55
2023-05-09T07:36:52.133Z,9.30
2023-05-09T07:39:18.749Z,8.40
2023-05-09T07:41:45.985Z,8.10
2023-05-09T07:44:16.998Z,7.35
2023-05-09T07:46:46.628Z,7.57
2023-05-09T07:49:13.208Z,8.00
2023-05-09T07:51:39.781Z,10.48
2023-05-09T07:54:06.383Z,8.38
2023-05-09T07:56:32.973Z,7.38
2023-05-09T07:58:59.526Z,9.23
2023-05-09T08:01:26.305Z,9.23
2023-05-09T08:03:53.138Z,9.10
2023-05-09T08:06:19.911Z,12.25
2023-05-09T08:08:46.581Z,8.25
2023-05-09T08:11:13.170Z,11.23
2023-05-09T08:13:39.799Z,7.93
2023-05-09T08:16:06.712Z,10.73
2023-05-09T08:18:33.294Z,7.88
2023-05-09T08:20:59.997Z,8.50
2023-05-09T08:23:30.382Z,10.07
2023-05-09T08:25:57.038Z,9.38
2023-05-09T08:28:24.296Z,7.95
2023-05-09T08:30:56.354Z,8.85
2023-05-09T08:33:23.049Z,10.00
2023-05-09T08:35:53.050Z,9.32
2023-05-09T08:38:19.679Z,8.90
2023-05-09T08:40:46.485Z,10.32
2023-05-09T08:43:17.623Z,10.00
2023-05-09T08:45:51.707Z,8.98
2023-05-09T08:48:18.865Z,9.77
2023-05-09T08:50:45.438Z,10.32
2023-05-09T08:53:12.444Z,9.40
2023-05-09T08:55:39.274Z,9.15
2023-05-09T08:58:06.170Z,10.10
2023-05-09T09:00:33.397Z,9.90
2023-05-09T09:03:04.325Z,9.10
2023-05-09T09:05:41.268Z,11.05
2023-05-09T09:08:09.658Z,10.23
2023-05-09T09:10:40.686Z,10.80
2023-05-09T09:13:07.512Z,8.25
2023-05-09T09:15:37.809Z,8.80
2023-05-09T09:18:09.072Z,8.40
2023-05-09T09:20:37.783Z,8.23
2023-05-09T09:23:11.046Z,8.65
2023-05-09T09:25:37.656Z,10.10
2023-05-09T09:28:05.886Z,9.38
2023-05-09T09:30:32.640Z,9.95
2023-05-09T09:32:59.405Z,11.55
2023-05-09T09:35:26.154Z,14.80
2023-05-09T09:37:59.746Z,10.38
2023-05-09T09:40:26.761Z,7.68
2023-05-09T09:42:53.358Z,9.02
2023-05-09T09:45:20.373Z,6.97
2023-05-09T09:47:51.501Z,10.57
2023-05-09T09:50:20.237Z,7.93
2023-05-09T09:52:53.495Z,8.50
2023-05-09T09:55:20.810Z,10.20
2023-05-09T09:57:48.339Z,8.70
2023-05-09T10:00:17.323Z,8.93
2023-05-09T10:02:52.135Z,9.70
2023-05-09T10:05:26.167Z,8.88
2023-05-09T10:08:04.340Z,8.43
2023-05-09T10:10:36.260Z,7.82
2023-05-09T10:13:07.687Z,9.30
2023-05-09T10:15:49.049Z,11.77
2023-05-09T10:18:27.601Z,8.52
2023-05-09T10:20:56.577Z,9.32
2023-05-09T10:23:25.566Z,9.50
2023-05-09T10:26:12.604Z,8.43
2023-05-09T10:28:40.735Z,9.05
2023-05-09T10:31:10.269Z,9.40
2023-05-09T10:33:46.470Z,13.52
2023-05-09T10:36:16.523Z,9.80
2023-05-09T10:38:43.674Z,9.95
2023-05-09T10:41:14.313Z,10.25
2023-05-09T10:43:41.052Z,11.77
2023-05-09T10:46:07.706Z,10.45
2023-05-09T10:48:34.627Z,11.60
2023-05-09T10:51:03.320Z,9.27
2023-05-09T10:53:56.566Z,9.20
2023-05-09T10:56:29.445Z,9.23
2023-05-09T10:58:56.569Z,9.02
2023-05-09T11:01:39.431Z,9.23
2023-05-09T11:04:14.561Z,10.30
2023-05-09T11:06:44.769Z,8.98
2023-05-09T11:09:29.698Z,8.27
2023-05-09T11:12:16.477Z,7.97
2023-05-09T11:14:50.549Z,7.53
2023-05-09T11:17:32.453Z,8.02
2023-05-09T11:20:07.662Z,9.77
2023-05-09T11:22:44.833Z,7.65
2023-05-09T11:25:15.416Z,7.85
2023-05-09T11:27:52.247Z,9.10
2023-05-09T11:30:20.228Z,8.75
2023-05-09T11:32:53.921Z,8.60
2023-05-09T11:35:22.104Z,8.00
2023-05-09T11:37:52.383Z,7.78
2023-05-09T11:40:28.416Z,7.45
2023-05-09T11:42:58.418Z,8.60
2023-05-09T11:45:34.277Z,8.15
2023-05-09T11:48:01.351Z,8.85
2023-05-09T11:50:28.452Z,7.15
2023-05-09T11:52:55.058Z,8.48
2023-05-09T11:55:32.687Z,7.10
2023-05-09T11:57:59.504Z,9.25
2023-05-09T12:00:26.540Z,5.70
2023-05-09T12:03:00.775Z,6.57
2023-05-09T12:05:28.221Z,7.32
2023-05-09T12:07:55.847Z,7.75
2023-05-09T12:10:23.182Z,6.93
2023-05-09T12:12:51.711Z,7.03
2023-05-09T12:15:21.407Z,7.10
2023-05-09T12:17:50.555Z,8.45
2023-05-09T12:20:21.557Z,6.75
2023-05-09T12:22:55.077Z,6.50
2023-05-09T12:25:27.502Z,7.18
2023-05-09T12:27:54.690Z,8.87
2023-05-09T12:30:21.391Z,7.13
2023-05-09T12:32:48.303Z,7.57
2023-05-09T12:35:19.286Z,8.25
2023-05-09T12:40:38.721Z,11.30
2023-05-09T12:43:05.811Z,8.90
2023-05-09T12:45:33.710Z,9.45
2023-05-09T12:48:02.491Z,6.38
2023-05-09T12:50:39.010Z,7.22
2023-05-09T12:53:05.584Z,6.75
2023-05-09T12:55:42.348Z,7.22
2023-05-09T12:58:12.845Z,7.35
2023-05-09T13:00:46.228Z,8.10
2023-05-09T13:06:00.058Z,7.47
2023-05-09T13:08:28.982Z,6.65
2023-05-09T13:11:07.743Z,7.38
2023-05-09T13:13:41.323Z,7.85
2023-05-09T13:16:10.077Z,8.48
2023-05-09T13:18:43.768Z,8.43
2023-05-09T13:21:10.397Z,7.10
2023-05-09T13:23:37.173Z,6.35
2023-05-09T13:26:03.769Z,6.90
2023-05-09T13:28:30.470Z,7.35
2023-05-09T13:30:57.285Z,7.20
2023-05-09T13:33:26.563Z,8.23
2023-05-09T13:35:53.414Z,7.03
2023-05-09T13:38:19.973Z,8.27
2023-05-09T13:40:46.608Z,7.22
2023-05-09T13:43:13.190Z,7.20
2023-05-09T13:45:39.781Z,6.47
2023-05-09T13:48:08.966Z,8.32
2023-05-09T13:50:35.842Z,6.68
2023-05-09T13:53:03.352Z,6.53
2023-05-09T13:55:30.860Z,9.38
2023-05-09T13:57:57.650Z,8.88
2023-05-09T14:00:27.209Z,7.57
2023-05-09T14:02:53.998Z,8.32
2023-05-09T14:05:23.684Z,7.00
2023-05-09T14:07:52.427Z,7.88
2023-05-09T14:10:22.238Z,7.57
2023-05-09T14:12:55.093Z,7.45
2023-05-09T14:15:24.693Z,6.30
2023-05-09T14:17:51.453Z,8.20
2023-05-09T14:20:18.186Z,8.38
2023-05-09T14:22:45.045Z,8.70
2023-05-09T14:25:11.594Z,7.25
2023-05-09T14:27:38.201Z,7.57
2023-05-09T14:30:05.293Z,8.43
2023-05-09T14:32:31.847Z,8.20
2023-05-09T14:34:58.445Z,7.97
2023-05-09T14:37:25.026Z,7.97
2023-05-09T14:39:51.707Z,6.18
2023-05-09T14:42:19.777Z,6.97
2023-05-09T14:44:47.401Z,8.38
2023-05-09T14:47:14.079Z,7.45
2023-05-09T14:49:41.384Z,7.03
2023-05-09T14:52:07.993Z,6.63
2023-05-09T14:54:36.474Z,5.75
2023-05-09T14:57:04.929Z,6.63
2023-05-09T14:59:31.596Z,7.78
2023-05-09T15:01:58.187Z,7.13
2023-05-09T15:04:28.374Z,6.05
2023-05-09T15:06:55.023Z,7.22
2023-05-09T15:09:21.645Z,4.78
2023-05-09T15:11:49.263Z,5.55
2023-05-09T15:14:16.679Z,5.80
2023-05-09T15:16:43.632Z,5.03
2023-05-09T15:19:10.208Z,5.53
2023-05-09T15:21:36.828Z,6.97
2023-05-09T15:24:08.252Z,5.80
2023-05-09T15:26:34.875Z,7.05
2023-05-09T15:29:01.419Z,6.45
2023-05-09T15:31:35.460Z,5.72
2023-05-09T15:34:04.798Z,5.88
2023-05-09T15:36:32.157Z,5.40
2023-05-09T15:38:58.922Z,6.65
2023-05-09T15:41:25.629Z,5.25
2023-05-09T15:43:55.285Z,6.18
2023-05-09T15:46:24.846Z,6.15
2023-05-09T15:48:52.156Z,4.78
2023-05-09T15:51:19.953Z,5.60
2023-05-09T15:53:46.508Z,4.78
2023-05-09T15:56:13.044Z,5.68
2023-05-09T15:58:40.384Z,7.22
2023-05-09T16:01:08.251Z,5.93
2023-05-09T16:03:35.142Z,5.13
2023-05-09T16:06:04.582Z,5.40
2023-05-09T16:08:31.162Z,5.35
2023-05-09T16:11:00.806Z,5.60
2023-05-09T16:13:27.529Z,5.07
2023-05-09T16:15:56.936Z,5.68
2023-05-09T16:18:26.653Z,5.57
2023-05-09T16:20:53.210Z,4.75
2023-05-09T16:23:21.637Z,6.35
2023-05-09T16:25:51.883Z,5.60
2023-05-09T16:28:19.465Z,5.43
2023-05-09T16:30:48.476Z,5.13
2023-05-09T16:33:15.080Z,4.80
2023-05-09T16:35:41.690Z,6.88
2023-05-09T16:38:08.290Z,5.13
2023-05-09T16:40:34.891Z,5.30
2023-05-09T16:43:01.683Z,4.50
2023-05-09T16:45:31.609Z,6.78
2023-05-09T16:48:00.651Z,5.05
2023-05-09T16:50:28.937Z,5.38
2023-05-09T16:52:59.303Z,5.28
2023-05-09T16:55:29.060Z,6.05
2023-05-09T16:57:58.253Z,6.00
2023-05-09T17:00:24.849Z,5.72
2023-05-09T17:02:51.490Z,4.60
2023-05-09T17:05:18.406Z,4.68
2023-05-09T17:07:45.127Z,4.22
2023-05-09T17:10:12.085Z,6.03
2023-05-09T17:12:42.029Z,5.07
2023-05-09T17:15:14.503Z,4.28
2023-05-09T17:17:41.087Z,5.13
2023-05-09T17:20:11.558Z,4.07
2023-05-09T17:22:39.143Z,3.85
2023-05-09T17:25:06.759Z,4.68
2023-05-09T17:27:33.397Z,5.50
2023-05-09T17:29:59.961Z,5.10
2023-05-09T17:32:26.600Z,4.45
2023-05-09T17:34:54.386Z,4.70
2023-05-09T17:37:20.973Z,5.30
2023-05-09T17:39:47.570Z,6.15
2023-05-09T17:42:14.143Z,4.47
2023-05-09T17:44:43.036Z,3.88
2023-05-09T17:47:12.585Z,4.65
2023-05-09T17:49:39.155Z,4.70
2023-05-09T17:52:05.706Z,4.65
2023-05-09T17:54:32.267Z,4.20
2023-05-09T17:57:02.157Z,3.40
2023-05-09T17:59:28.901Z,3.78
2023-05-09T18:01:55.725Z,4.38
2023-05-09T18:04:22.425Z,3.88
2023-05-09T18:06:49.390Z,5.13
2023-05-09T18:09:16.063Z,4.07
2023-05-09T18:11:42.600Z,3.92
2023-05-09T18:14:09.214Z,4.00
2023-05-09T18:16:35.884Z,5.20
2023-05-09T18:19:02.466Z,4.07
2023-05-09T18:21:29.426Z,4.10
2023-05-09T18:23:57.231Z,4.20
2023-05-09T18:26:24.017Z,3.60
2023-05-09T18:28:50.629Z,3.85
2023-05-09T18:31:17.267Z,3.78
2023-05-09T18:33:43.923Z,3.95
2023-05-09T18:36:11.206Z,3.97
2023-05-09T18:38:38.660Z,3.72
2023-05-09T18:41:09.425Z,3.60
2023-05-09T18:43:38.688Z,4.50
2023-05-09T18:46:05.785Z,4.00
2023-05-09T18:48:32.909Z,3.92
2023-05-09T18:50:59.450Z,3.88
2023-05-09T18:53:26.716Z,4.20
2023-05-09T18:55:53.432Z,3.90
2023-05-09T18:58:21.320Z,5.78
2023-05-09T19:00:48.062Z,4.53
2023-05-09T19:03:14.694Z,5.55
2023-05-09T19:05:41.445Z,4.47
2023-05-09T19:08:10.290Z,4.43
2023-05-09T19:10:37.980Z,4.68
2023-05-09T19:13:06.004Z,4.63
2023-05-09T19:15:33.366Z,4.88
2023-05-09T19:18:00.492Z,5.07
2023-05-09T19:20:29.558Z,4.40
2023-05-09T19:23:03.447Z,3.85
2023-05-09T19:25:33.691Z,3.08
2023-05-09T19:28:00.395Z,4.18
2023-05-09T19:30:27.011Z,4.25
2023-05-09T19:32:53.634Z,4.80
2023-05-09T19:35:20.605Z,3.08
2023-05-09T19:37:47.188Z,5.10
2023-05-09T19:40:14.170Z,4.15
2023-05-09T19:42:41.910Z,3.50
2023-05-09T19:45:09.046Z,3.47
2023-05-09T19:47:35.753Z,4.47
2023-05-09T19:50:02.411Z,4.05
2023-05-09T19:52:29.919Z,4.18
2023-05-09T19:54:56.550Z,3.72
2023-05-09T19:57:23.102Z,5.32
2023-05-09T19:59:49.679Z,4.40
2023-05-09T20:02:16.290Z,4.57
2023-05-09T20:04:49.558Z,3.70
2023-05-09T20:09:47.016Z,3.35
2023-05-09T20:12:16.744Z,3.60
2023-05-09T20:14:45.871Z,3.85
2023-05-09T20:17:12.439Z,3.22
2023-05-09T20:19:39.106Z,3.40
2023-05-09T20:22:13.078Z,3.60
2023-05-09T20:24:42.164Z,3.10
2023-05-09T20:27:08.717Z,4.60
2023-05-09T20:29:35.318Z,2.95
2023-05-09T20:32:01.888Z,4.53
2023-05-09T20:34:28.475Z,4.97
2023-05-09T20:36:55.168Z,4.43
2023-05-09T20:39:21.777Z,3.22
2023-05-09T20:41:49.209Z,3.28
2023-05-09T20:44:17.676Z,3.30
2023-05-09T20:46:47.619Z,3.22
2023-05-09T20:49:16.784Z,4.85
2023-05-09T20:51:43.349Z,4.63
2023-05-09T20:54:12.529Z,3.92
2023-05-09T20:56:39.096Z,3.40
2023-05-09T20:59:08.660Z,3.17
2023-05-09T21:01:43.899Z,3.05
2023-05-09T21:04:31.366Z,3.70
2023-05-09T21:07:00.530Z,3.47
2023-05-09T21:09:27.089Z,2.88
2023-05-09T21:11:58.199Z,2.90
2023-05-09T21:14:24.774Z,4.07
2023-05-09T21:16:55.088Z,3.90
2023-05-09T21:19:22.862Z,3.72
2023-05-09T21:21:57.004Z,3.33
2023-05-09T21:24:23.561Z,4.13
2023-05-09T21:26:50.729Z,2.65
2023-05-09T21:29:19.900Z,4.20
2023-05-09T21:31:46.507Z,3.33
2023-05-09T21:34:13.130Z,3.40
2023-05-09T21:36:42.793Z,4.50
2023-05-09T21:39:13.217Z,2.78
2023-05-09T21:41:46.343Z,4.15
2023-05-09T21:44:16.158Z,3.67
2023-05-09T21:46:46.416Z,4.53
2023-05-09T21:49:36.414Z,3.20
2023-05-09T21:52:06.359Z,2.85
2023-05-09T21:54:32.963Z,3.85
2023-05-09T21:56:59.551Z,4.25
2023-05-09T21:59:29.191Z,3.00
2023-05-09T22:01:55.777Z,3.47
2023-05-09T22:04:22.390Z,4.05
2023-05-09T22:06:51.261Z,3.33
2023-05-09T22:09:18.061Z,2.92
2023-05-09T22:11:47.232Z,3.25
2023-05-09T22:14:13.764Z,4.60
2023-05-09T22:16:40.331Z,2.88
2023-05-09T22:19:10.010Z,2.65
2023-05-09T22:21:36.562Z,3.42
2023-05-09T22:24:06.988Z,3.90
2023-05-09T22:26:33.646Z,4.25
2023-05-09T22:29:00.427Z,3.33
2023-05-09T22:31:31.069Z,3.42
2023-05-09T22:33:57.661Z,3.92
2023-05-09T22:36:25.034Z,2.97
2023-05-09T22:38:51.659Z,3.13
2023-05-09T22:41:18.228Z,3.88
2023-05-09T22:43:46.607Z,2.90
2023-05-09T22:46:13.207Z,3.05
2023-05-09T22:48:39.828Z,2.67
2023-05-09T22:51:06.451Z,2.85
2023-05-09T22:53:33.031Z,3.20
2023-05-09T22:56:01.893Z,4.40
2023-05-09T22:58:28.477Z,3.80
2023-05-09T23:00:55.108Z,2.28
2023-05-09T23:03:21.815Z,4.28
2023-05-09T23:05:48.924Z,3.40
2023-05-09T23:08:18.318Z,3.75
2023-05-09T23:10:52.025Z,2.75
2023-05-09T23:13:18.625Z,2.25
2023-05-09T23:15:49.745Z,2.30
2023-05-09T23:18:17.122Z,4.03
2023-05-09T23:20:46.420Z,2.65
2023-05-09T23:23:15.662Z,2.50
2023-05-09T23:25:42.188Z,5.50
2023-05-09T23:28:08.762Z,5.82
2023-05-09T23:30:35.367Z,2.80
2023-05-09T23:33:01.990Z,3.40
2023-05-09T23:35:28.569Z,3.92
2023-05-09T23:37:58.003Z,2.30
2023-05-09T23:40:24.552Z,2.50
2023-05-09T23:42:53.669Z,4.82
2023-05-09T23:45:22.860Z,3.38
2023-05-09T23:47:49.469Z,2.80
2023-05-09T23:50:16.212Z,2.55
2023-05-09T23:52:42.990Z,3.03
2023-05-09T23:55:09.935Z,3.78
2023-05-09T23:57:36.521Z,3.70
